sensor_id;sensor_type;location;lat;lon;timestamp;P1;durP1;ratioP1;P2;durP2;ratioP2
23594;SDS011;11975;47.674;9.472;2023-04-24T00:01:48;23.35;;;22.05;;
23594;SDS011;11975;47.674;9.472;2023-04-24T00:04:14;22.83;;;21.52;;
23594;SDS011;11975;47.674;9.472;2023-04-24T00:06:42;22.73;;;21.45;;
23594;SDS011;11975;47.674;9.472;2023-04-24T00:09:09;22.65;;;21.38;;
23594;SDS011;11975;47.674;9.472;2023-04-24T00:11:38;23.05;;;21.75;;
23594;SDS011;11975;47.674;9.472;2023-04-24T00:14:04;23.17;;;21.88;;
23594;SDS011;11975;47.674;9.472;2023-04-24T00:16:30;23.70;;;22.40;;
23594;SDS011;11975;47.674;9.472;2023-04-24T00:18:56;23.67;;;22.38;;
23594;SDS011;11975;47.674;9.472;2023-04-24T00:21:21;23.70;;;22.40;;
23594;SDS011;11975;47.674;9.472;2023-04-24T02:21:29;27.75;;;26.15;;
23594;SDS011;11975;47.674;9.472;2023-04-24T02:23:56;28.55;;;26.95;;
23594;SDS011;11975;47.674;9.472;2023-04-24T02:26:22;27.98;;;26.38;;
23594;SDS011;11975;47.674;9.472;2023-04-24T02:28:48;27.65;;;26.15;;
23594;SDS011;11975;47.674;9.472;2023-04-24T02:31:14;27.05;;;25.55;;
23594;SDS011;11975;47.674;9.472;2023-04-24T02:33:40;26.10;;;24.60;;
23594;SDS011;11975;47.674;9.472;2023-04-24T02:36:06;26.02;;;24.55;;
23594;SDS011;11975;47.674;9.472;2023-04-24T02:38:32;25.98;;;24.10;;
23594;SDS011;11975;47.674;9.472;2023-04-24T02:40:58;25.48;;;24.08;;
23594;SDS011;11975;47.674;9.472;2023-04-24T02:43:24;25.73;;;24.33;;
23594;SDS011;11975;47.674;9.472;2023-04-24T02:45:50;25.67;;;24.27;;
23594;SDS011;11975;47.674;9.472;2023-04-24T02:48:16;25.95;;;24.35;;
23594;SDS011;11975;47.674;9.472;2023-04-24T02:50:42;26.17;;;24.70;;
23594;SDS011;11975;47.674;9.472;2023-04-24T02:53:08;25.50;;;24.10;;
23594;SDS011;11975;47.674;9.472;2023-04-24T02:55:34;25.50;;;24.10;;
23594;SDS011;11975;47.674;9.472;2023-04-24T02:58:00;25.00;;;23.60;;
23594;SDS011;11975;47.674;9.472;2023-04-24T03:00:26;24.27;;;22.95;;
23594;SDS011;11975;47.674;9.472;2023-04-24T03:02:52;24.35;;;23.00;;
23594;SDS011;11975;47.674;9.472;2023-04-24T03:05:18;24.73;;;23.33;;
23594;SDS011;11975;47.674;9.472;2023-04-24T03:07:44;24.50;;;23.13;;
23594;SDS011;11975;47.674;9.472;2023-04-24T03:10:11;23.88;;;22.58;;
23594;SDS011;11975;47.674;9.472;2023-04-24T03:12:37;23.92;;;22.63;;
23594;SDS011;11975;47.674;9.472;2023-04-24T03:15:03;24.08;;;22.77;;
23594;SDS011;11975;47.674;9.472;2023-04-24T03:17:29;24.20;;;22.90;;
23594;SDS011;11975;47.674;9.472;2023-04-24T03:19:55;23.48;;;22.17;;
23594;SDS011;11975;47.674;9.472;2023-04-24T03:22:21;23.67;;;22.38;;
23594;SDS011;11975;47.674;9.472;2023-04-24T03:24:47;24.08;;;22.77;;
23594;SDS011;11975;47.674;9.472;2023-04-24T03:27:13;23.25;;;21.95;;
23594;SDS011;11975;47.674;9.472;2023-04-24T03:29:38;22.92;;;21.63;;
23594;SDS011;11975;47.674;9.472;2023-04-24T03:32:05;24.00;;;22.70;;
23594;SDS011;11975;47.674;9.472;2023-04-24T03:34:31;24.20;;;22.90;;
23594;SDS011;11975;47.674;9.472;2023-04-24T03:36:57;23.42;;;22.13;;
23594;SDS011;11975;47.674;9.472;2023-04-24T03:39:23;23.77;;;22.48;;
23594;SDS011;11975;47.674;9.472;2023-04-24T03:41:50;23.40;;;22.10;;
23594;SDS011;11975;47.674;9.472;2023-04-24T03:44:16;23.52;;;22.23;;
23594;SDS011;11975;47.674;9.472;2023-04-24T03:46:42;22.88;;;21.58;;
23594;SDS011;11975;47.674;9.472;2023-04-24T03:49:08;23.38;;;22.08;;
23594;SDS011;11975;47.674;9.472;2023-04-24T03:51:34;23.17;;;21.88;;
23594;SDS011;11975;47.674;9.472;2023-04-24T03:54:00;23.27;;;21.97;;
23594;SDS011;11975;47.674;9.472;2023-04-24T03:56:26;23.65;;;22.35;;
23594;SDS011;11975;47.674;9.472;2023-04-24T03:58:52;23.08;;;21.77;;
23594;SDS011;11975;47.674;9.472;2023-04-24T04:01:18;23.52;;;22.23;;
23594;SDS011;11975;47.674;9.472;2023-04-24T04:03:46;23.50;;;22.20;;
23594;SDS011;11975;47.674;9.472;2023-04-24T04:06:12;23.23;;;21.92;;
23594;SDS011;11975;47.674;9.472;2023-04-24T04:08:38;23.10;;;21.80;;
23594;SDS011;11975;47.674;9.472;2023-04-24T04:11:04;23.77;;;22.48;;
23594;SDS011;11975;47.674;9.472;2023-04-24T04:13:30;24.48;;;23.08;;
23594;SDS011;11975;47.674;9.472;2023-04-24T04:15:56;24.27;;;22.95;;
23594;SDS011;11975;47.674;9.472;2023-04-24T18:27:33;22.20;;;20.90;;
23594;SDS011;11975;47.674;9.472;2023-04-24T18:29:59;23.10;;;21.80;;
23594;SDS011;11975;47.674;9.472;2023-04-24T18:32:25;23.25;;;21.95;;
23594;SDS011;11975;47.674;9.472;2023-04-24T18:34:51;22.77;;;21.48;;
23594;SDS011;11975;47.674;9.472;2023-04-24T18:37:17;23.35;;;22.05;;
23594;SDS011;11975;47.674;9.472;2023-04-24T18:39:43;23.55;;;22.25;;
23594;SDS011;11975;47.674;9.472;2023-04-24T18:42:09;23.05;;;21.75;;
23594;SDS011;11975;47.674;9.472;2023-04-24T18:44:35;23.15;;;21.85;;
23594;SDS011;11975;47.674;9.472;2023-04-24T18:47:05;23.38;;;22.02;;
23594;SDS011;11975;47.674;9.472;2023-04-24T18:49:32;23.30;;;22.00;;
23594;SDS011;11975;47.674;9.472;2023-04-24T18:51:58;22.67;;;21.27;;
23594;SDS011;11975;47.674;9.472;2023-04-24T18:54:24;23.60;;;21.90;;
23594;SDS011;11975;47.674;9.472;2023-04-24T18:56:50;22.52;;;21.25;;
23594;SDS011;11975;47.674;9.472;2023-04-24T18:59:16;22.33;;;21.13;;
23594;SDS011;11975;47.674;9.472;2023-04-24T19:01:43;21.98;;;20.77;;
23594;SDS011;11975;47.674;9.472;2023-04-24T19:04:08;22.58;;;21.17;;
23594;SDS011;11975;47.674;9.472;2023-04-24T19:06:34;22.73;;;21.42;;
23594;SDS011;11975;47.674;9.472;2023-04-24T19:09:00;22.30;;;21.10;;
23594;SDS011;11975;47.674;9.472;2023-04-24T19:11:26;21.95;;;20.65;;
23594;SDS011;11975;47.674;9.472;2023-04-24T19:13:52;22.15;;;20.85;;
23594;SDS011;11975;47.674;9.472;2023-04-24T19:16:18;22.25;;;21.05;;
23594;SDS011;11975;47.674;9.472;2023-04-24T19:18:44;22.05;;;20.85;;
23594;SDS011;11975;47.674;9.472;2023-04-24T19:21:10;22.27;;;21.00;;
23594;SDS011;11975;47.674;9.472;2023-04-24T19:23:36;22.67;;;21.40;;
23594;SDS011;11975;47.674;9.472;2023-04-24T19:26:04;22.13;;;20.92;;
23594;SDS011;11975;47.674;9.472;2023-04-24T19:28:31;22.17;;;20.97;;
23594;SDS011;11975;47.674;9.472;2023-04-24T19:30:57;22.50;;;21.20;;
23594;SDS011;11975;47.674;9.472;2023-04-24T19:33:23;23.52;;;21.45;;
23594;SDS011;11975;47.674;9.472;2023-04-24T19:35:50;22.60;;;21.30;;
23594;SDS011;11975;47.674;9.472;2023-04-24T19:38:16;22.10;;;20.90;;
23594;SDS011;11975;47.674;9.472;2023-04-24T19:40:42;22.23;;;20.98;;
23594;SDS011;11975;47.674;9.472;2023-04-24T19:43:07;21.90;;;20.70;;
23594;SDS011;11975;47.674;9.472;2023-04-24T19:45:33;22.40;;;21.10;;
23594;SDS011;11975;47.674;9.472;2023-04-24T19:48:00;22.00;;;20.80;;
23594;SDS011;11975;47.674;9.472;2023-04-24T19:50:26;21.73;;;20.52;;
23594;SDS011;11975;47.674;9.472;2023-04-24T19:52:52;21.52;;;20.33;;
23594;SDS011;11975;47.674;9.472;2023-04-24T19:55:18;21.63;;;20.42;;
23594;SDS011;11975;47.674;9.472;2023-04-24T19:57:44;21.58;;;20.38;;
23594;SDS011;11975;47.674;9.472;2023-04-24T20:00:10;21.90;;;20.70;;
23594;SDS011;11975;47.674;9.472;2023-04-24T20:02:37;22.55;;;21.25;;
23594;SDS011;11975;47.674;9.472;2023-04-24T20:05:03;21.60;;;20.40;;
23594;SDS011;11975;47.674;9.472;2023-04-24T20:07:29;21.92;;;20.73;;
23594;SDS011;11975;47.674;9.472;2023-04-24T20:09:55;21.70;;;20.50;;
23594;SDS011;11975;47.674;9.472;2023-04-24T20:12:21;22.33;;;20.77;;
23594;SDS011;11975;47.674;9.472;2023-04-24T20:14:47;22.02;;;20.83;;
23594;SDS011;11975;47.674;9.472;2023-04-24T20:17:14;21.90;;;20.70;;
23594;SDS011;11975;47.674;9.472;2023-04-24T20:19:41;22.58;;;21.27;;
23594;SDS011;11975;47.674;9.472;2023-04-24T20:22:07;22.55;;;21.25;;
23594;SDS011;11975;47.674;9.472;2023-04-24T20:24:33;22.20;;;20.95;;
23594;SDS011;11975;47.674;9.472;2023-04-24T20:26:59;22.10;;;20.90;;
23594;SDS011;11975;47.674;9.472;2023-04-24T20:29:26;22.27;;;20.98;;
23594;SDS011;11975;47.674;9.472;2023-04-24T20:31:52;22.10;;;20.90;;
23594;SDS011;11975;47.674;9.472;2023-04-24T20:34:19;21.77;;;20.58;;
23594;SDS011;11975;47.674;9.472;2023-04-24T20:36:45;22.55;;;21.17;;
23594;SDS011;11975;47.674;9.472;2023-04-24T20:39:11;22.08;;;20.73;;
23594;SDS011;11975;47.674;9.472;2023-04-24T20:41:37;23.02;;;21.63;;
23594;SDS011;11975;47.674;9.472;2023-04-24T20:44:03;21.83;;;20.63;;
23594;SDS011;11975;47.674;9.472;2023-04-24T20:46:30;22.38;;;21.15;;
23594;SDS011;11975;47.674;9.472;2023-04-24T20:48:56;21.55;;;20.35;;
23594;SDS011;11975;47.674;9.472;2023-04-24T20:51:22;21.42;;;20.23;;
23594;SDS011;11975;47.674;9.472;2023-04-24T20:53:48;22.20;;;21.00;;
23594;SDS011;11975;47.674;9.472;2023-04-24T20:56:14;22.05;;;20.85;;
23594;SDS011;11975;47.674;9.472;2023-04-24T20:58:43;22.13;;;20.88;;
23594;SDS011;11975;47.674;9.472;2023-04-24T21:01:09;21.63;;;20.42;;
23594;SDS011;11975;47.674;9.472;2023-04-24T21:03:35;21.88;;;20.63;;
23594;SDS011;11975;47.674;9.472;2023-04-24T21:06:01;21.52;;;20.33;;
23594;SDS011;11975;47.674;9.472;2023-04-24T21:08:27;22.20;;;20.83;;
23594;SDS011;11975;47.674;9.472;2023-04-24T21:10:53;21.20;;;20.00;;
23594;SDS011;11975;47.674;9.472;2023-04-24T21:13:19;21.80;;;20.60;;
23594;SDS011;11975;47.674;9.472;2023-04-24T21:15:45;22.00;;;20.80;;
23594;SDS011;11975;47.674;9.472;2023-04-24T21:18:11;22.05;;;20.85;;
23594;SDS011;11975;47.674;9.472;2023-04-24T21:20:37;21.70;;;20.50;;
23594;SDS011;11975;47.674;9.472;2023-04-24T21:23:03;21.65;;;20.45;;
23594;SDS011;11975;47.674;9.472;2023-04-24T21:25:29;21.95;;;20.65;;
23594;SDS011;11975;47.674;9.472;2023-04-24T21:27:55;21.90;;;20.70;;
23594;SDS011;11975;47.674;9.472;2023-04-24T21:30:23;26.63;;;20.52;;
23594;SDS011;11975;47.674;9.472;2023-04-24T21:32:49;21.95;;;20.75;;
23594;SDS011;11975;47.674;9.472;2023-04-24T21:37:42;21.63;;;20.42;;
23594;SDS011;11975;47.674;9.472;2023-04-24T21:40:08;21.75;;;20.55;;
23594;SDS011;11975;47.674;9.472;2023-04-24T21:42:36;22.25;;;20.90;;
23594;SDS011;11975;47.674;9.472;2023-04-24T21:45:03;23.13;;;21.50;;
23594;SDS011;11975;47.674;9.472;2023-04-24T21:47:29;21.67;;;20.48;;
23594;SDS011;11975;47.674;9.472;2023-04-24T21:49:55;22.15;;;20.88;;
23594;SDS011;11975;47.674;9.472;2023-04-24T21:52:21;21.95;;;20.67;;
23594;SDS011;11975;47.674;9.472;2023-04-24T21:54:47;22.00;;;20.80;;
23594;SDS011;11975;47.674;9.472;2023-04-24T21:57:13;22.67;;;21.23;;
23594;SDS011;11975;47.674;9.472;2023-04-24T21:59:39;22.45;;;21.17;;
23594;SDS011;11975;47.674;9.472;2023-04-24T22:02:05;21.60;;;20.40;;
23594;SDS011;11975;47.674;9.472;2023-04-24T22:04:31;22.00;;;20.80;;
23594;SDS011;11975;47.674;9.472;2023-04-24T22:06:57;22.50;;;21.20;;
23594;SDS011;11975;47.674;9.472;2023-04-24T22:09:23;22.10;;;20.90;;
23594;SDS011;11975;47.674;9.472;2023-04-24T22:11:49;22.02;;;20.83;;
23594;SDS011;11975;47.674;9.472;2023-04-24T22:14:15;21.83;;;20.63;;
23594;SDS011;11975;47.674;9.472;2023-04-24T22:16:41;21.95;;;20.75;;
23594;SDS011;11975;47.674;9.472;2023-04-24T22:19:07;21.70;;;20.40;;
23594;SDS011;11975;47.674;9.472;2023-04-24T22:21:34;22.47;;;21.00;;
23594;SDS011;11975;47.674;9.472;2023-04-24T22:24:00;22.40;;;21.10;;
23594;SDS011;11975;47.674;9.472;2023-04-24T22:26:26;21.90;;;20.60;;
23594;SDS011;11975;47.674;9.472;2023-04-24T22:28:52;21.65;;;20.45;;
23594;SDS011;11975;47.674;9.472;2023-04-24T22:31:18;22.17;;;20.98;;
23594;SDS011;11975;47.674;9.472;2023-04-24T22:33:44;21.42;;;20.23;;
23594;SDS011;11975;47.674;9.472;2023-04-24T22:36:10;21.98;;;20.77;;
23594;SDS011;11975;47.674;9.472;2023-04-24T22:38:36;21.77;;;20.58;;
23594;SDS011;11975;47.674;9.472;2023-04-24T22:41:02;22.73;;;21.27;;
23594;SDS011;11975;47.674;9.472;2023-04-24T22:43:29;22.92;;;21.63;;
23594;SDS011;11975;47.674;9.472;2023-04-24T22:45:55;22.88;;;21.58;;
23594;SDS011;11975;47.674;9.472;2023-04-24T22:48:21;22.70;;;21.40;;
23594;SDS011;11975;47.674;9.472;2023-04-24T22:50:47;22.90;;;21.50;;
23594;SDS011;11975;47.674;9.472;2023-04-24T22:53:13;21.98;;;20.77;;
23594;SDS011;11975;47.674;9.472;2023-04-24T22:55:39;22.35;;;21.05;;
23594;SDS011;11975;47.674;9.472;2023-04-24T22:58:05;22.73;;;21.42;;
23594;SDS011;11975;47.674;9.472;2023-04-24T23:00:31;22.27;;;21.00;;
23594;SDS011;11975;47.674;9.472;2023-04-24T23:02:57;22.10;;;20.90;;
23594;SDS011;11975;47.674;9.472;2023-04-24T23:05:23;22.10;;;20.80;;
23594;SDS011;11975;47.674;9.472;2023-04-24T23:07:49;21.90;;;20.70;;
23594;SDS011;11975;47.674;9.472;2023-04-24T23:10:15;22.98;;;21.67;;
23594;SDS011;11975;47.674;9.472;2023-04-24T23:12:41;22.90;;;21.50;;
23594;SDS011;11975;47.674;9.472;2023-04-24T23:15:08;22.30;;;21.10;;
23594;SDS011;11975;47.674;9.472;2023-04-24T23:17:35;23.13;;;21.83;;
23594;SDS011;11975;47.674;9.472;2023-04-24T23:20:01;22.23;;;21.02;;
23594;SDS011;11975;47.674;9.472;2023-04-24T23:22:27;21.70;;;20.50;;
23594;SDS011;11975;47.674;9.472;2023-04-24T23:24:53;22.33;;;21.02;;
23594;SDS011;11975;47.674;9.472;2023-04-24T23:27:19;22.42;;;21.13;;
23594;SDS011;11975;47.674;9.472;2023-04-24T23:29:45;21.67;;;20.48;;
23594;SDS011;11975;47.674;9.472;2023-04-24T23:32:11;23.00;;;21.70;;
23594;SDS011;11975;47.674;9.472;2023-04-24T23:34:37;22.33;;;21.02;;
23594;SDS011;11975;47.674;9.472;2023-04-24T23:37:04;22.45;;;21.15;;
23594;SDS011;11975;47.674;9.472;2023-04-24T23:39:30;22.88;;;21.58;;
23594;SDS011;11975;47.674;9.472;2023-04-24T23:41:57;22.97;;;21.67;;
23594;SDS011;11975;47.674;9.472;2023-04-24T23:44:24;23.30;;;21.80;;
23594;SDS011;11975;47.674;9.472;2023-04-24T23:46:50;21.83;;;20.63;;
23594;SDS011;11975;47.674;9.472;2023-04-24T23:49:16;21.38;;;20.17;;
23594;SDS011;11975;47.674;9.472;2023-04-24T23:51:42;22.48;;;21.17;;
23594;SDS011;11975;47.674;9.472;2023-04-24T23:54:08;22.25;;;21.05;;
23594;SDS011;11975;47.674;9.472;2023-04-24T23:56:34;22.40;;;21.10;;
23594;SDS011;11975;47.674;9.472;2023-04-24T23:58:59;22.40;;;21.10;;
